createdAt,value
2022-10-07T00:00:05.578Z,69.54
2022-10-07T00:02:37.646Z,69.27
2022-10-07T00:05:08.321Z,68.76
2022-10-07T00:07:38.650Z,68.76
2022-10-07T00:10:09.744Z,68.76
2022-10-07T00:12:40.118Z,69.60
2022-10-07T00:15:11.271Z,68.75
2022-10-07T00:17:42.150Z,68.32
2022-10-07T00:20:12.694Z,67.89
2022-10-07T00:22:43.132Z,69.07
2022-10-07T00:25:13.570Z,69.39
2022-10-07T00:27:44.079Z,68.23
2022-10-07T00:30:14.763Z,68.42
2022-10-07T00:32:45.107Z,67.68
2022-10-07T00:35:15.869Z,67.17
2022-10-07T00:37:46.860Z,67.95
2022-10-07T00:40:18.171Z,68.28
2022-10-07T00:42:49.095Z,67.70
2022-10-07T00:45:19.763Z,67.21
2022-10-07T00:47:51.037Z,68.50
2022-10-07T00:53:04.218Z,68.22
2022-10-07T00:55:34.868Z,68.81
2022-10-07T00:58:06.463Z,68.03
2022-10-07T01:00:39.131Z,67.94
2022-10-07T01:03:09.650Z,68.06
2022-10-07T01:05:39.968Z,68.06
2022-10-07T01:08:10.649Z,68.97
2022-10-07T01:11:10.980Z,68.97
2022-10-07T01:14:07.816Z,68.84
2022-10-07T01:16:59.303Z,68.75
2022-10-07T01:19:48.916Z,68.76
2022-10-07T01:22:28.455Z,68.76
2022-10-07T01:25:19.638Z,69.84
2022-10-07T01:28:11.839Z,69.54
2022-10-07T01:30:44.710Z,69.40
2022-10-07T01:33:18.143Z,68.47
2022-10-07T01:35:50.925Z,68.91
2022-10-07T01:38:25.457Z,68.29
2022-10-07T01:41:05.050Z,68.52
2022-10-07T01:43:37.432Z,68.05
2022-10-07T01:46:11.274Z,68.13
2022-10-07T01:48:41.547Z,68.75
2022-10-07T01:51:12.376Z,69.43
2022-10-07T01:53:57.501Z,70.22
2022-10-07T01:56:56.754Z,70.02
2022-10-07T02:02:31.464Z,69.33
2022-10-07T02:05:21.299Z,69.49
2022-10-07T02:07:57.777Z,70.32
2022-10-07T02:10:45.033Z,70.76
2022-10-07T02:13:30.862Z,70.39
2022-10-07T02:16:12.936Z,70.93
2022-10-07T02:18:46.555Z,70.93
2022-10-07T02:21:20.246Z,72.21
2022-10-07T02:23:53.228Z,71.85
2022-10-07T02:26:27.007Z,71.39
2022-10-07T02:28:59.831Z,71.70
2022-10-07T02:31:32.892Z,72.16
2022-10-07T02:34:06.973Z,72.33
2022-10-07T02:36:40.297Z,72.92
2022-10-07T02:39:12.485Z,72.92
2022-10-07T02:42:10.965Z,72.15
2022-10-07T02:45:12.606Z,71.85
2022-10-07T02:47:51.814Z,71.72
2022-10-07T02:50:24.875Z,70.61
2022-10-07T02:52:56.696Z,70.43
2022-10-07T02:55:29.234Z,70.40
2022-10-07T02:58:02.420Z,70.40
2022-10-07T03:00:35.720Z,70.92
2022-10-07T03:03:06.449Z,71.48
2022-10-07T03:05:36.976Z,72.58
2022-10-07T03:08:18.204Z,72.81
2022-10-07T03:10:48.817Z,72.48
2022-10-07T03:13:20.306Z,72.78
2022-10-07T03:15:51.029Z,72.87
2022-10-07T03:18:22.283Z,72.87
2022-10-07T03:20:54.220Z,72.04
2022-10-07T03:23:25.116Z,71.26
2022-10-07T03:25:57.407Z,70.13
2022-10-07T03:28:30.051Z,70.13
2022-10-07T03:31:07.903Z,69.10
2022-10-07T03:33:38.766Z,69.10
2022-10-07T03:36:09.479Z,69.30
2022-10-07T03:38:39.923Z,70.40
2022-10-07T03:41:10.159Z,70.93
2022-10-07T03:43:40.861Z,70.16
2022-10-07T03:46:11.163Z,69.12
2022-10-07T03:48:41.710Z,69.12
2022-10-07T03:51:12.039Z,69.43
2022-10-07T03:53:42.481Z,68.58
2022-10-07T03:56:12.703Z,68.31
2022-10-07T03:58:43.465Z,67.69
2022-10-07T04:01:14.275Z,67.38
2022-10-07T04:03:45.471Z,67.51
2022-10-07T04:06:17.549Z,67.41
2022-10-07T04:08:50.781Z,69.06
2022-10-07T04:11:22.463Z,69.33
2022-10-07T04:13:54.016Z,69.01
2022-10-07T04:16:25.267Z,69.74
2022-10-07T04:18:56.789Z,69.75
2022-10-07T04:21:27.430Z,68.48
2022-10-07T04:23:57.794Z,68.48
2022-10-07T04:26:28.139Z,67.58
2022-10-07T04:28:59.505Z,67.08
2022-10-07T04:31:29.769Z,67.08
2022-10-07T04:34:01.317Z,67.68
2022-10-07T04:36:31.817Z,67.47
2022-10-07T04:39:02.134Z,67.70
2022-10-07T04:41:32.690Z,67.18
2022-10-07T04:44:03.081Z,67.05
2022-10-07T04:46:33.471Z,69.55
2022-10-07T04:49:03.801Z,69.55
2022-10-07T04:51:36.194Z,67.44
2022-10-07T04:54:07.537Z,67.90
2022-10-07T04:56:40.959Z,68.29
2022-10-07T04:59:17.099Z,69.87
2022-10-07T05:01:49.589Z,67.69
2022-10-07T05:04:20.022Z,67.84
2022-10-07T05:06:50.305Z,67.39
2022-10-07T05:09:23.330Z,67.39
2022-10-07T05:11:54.402Z,66.92
2022-10-07T05:14:25.006Z,68.28
2022-10-07T05:16:55.815Z,68.61
2022-10-07T05:19:27.925Z,68.14
2022-10-07T05:21:58.854Z,68.14
2022-10-07T05:24:29.860Z,67.47
2022-10-07T05:27:02.062Z,67.67
2022-10-07T05:29:32.928Z,67.67
2022-10-07T05:32:05.187Z,68.98
2022-10-07T05:34:36.122Z,69.37
2022-10-07T05:37:07.238Z,69.50
2022-10-07T05:39:38.421Z,69.50
2022-10-07T05:42:12.828Z,69.04
2022-10-07T05:44:44.077Z,69.40
2022-10-07T05:47:14.471Z,69.40
2022-10-07T05:49:45.418Z,69.35
2022-10-07T05:52:16.134Z,69.37
2022-10-07T05:54:46.682Z,67.46
2022-10-07T05:57:18.184Z,67.46
2022-10-07T05:59:52.355Z,59.96
2022-10-07T06:02:25.434Z,59.96
2022-10-07T06:04:57.206Z,56.34
2022-10-07T06:07:29.404Z,54.47
2022-10-07T06:13:05.306Z,53.60
2022-10-07T06:15:40.409Z,51.09
2022-10-07T06:18:15.494Z,51.09
2022-10-07T06:20:59.653Z,49.42
2022-10-07T06:23:30.858Z,48.76
2022-10-07T06:26:05.507Z,47.10
2022-10-07T06:28:45.036Z,46.37
2022-10-07T06:31:22.904Z,47.36
2022-10-07T06:33:59.129Z,46.50
2022-10-07T06:36:29.589Z,45.65
2022-10-07T06:38:59.942Z,44.44
2022-10-07T06:41:30.445Z,44.95
2022-10-07T06:44:00.902Z,45.47
2022-10-07T06:46:31.600Z,44.90
2022-10-07T06:49:02.041Z,42.77
2022-10-07T06:51:32.526Z,42.77
2022-10-07T06:54:06.452Z,44.46
2022-10-07T06:56:37.474Z,42.94
2022-10-07T06:59:09.251Z,45.48
2022-10-07T07:01:39.674Z,45.92
2022-10-07T07:04:10.789Z,45.92
2022-10-07T07:06:42.755Z,42.90
2022-10-07T07:09:17.737Z,42.90
2022-10-07T07:11:50.875Z,44.69
2022-10-07T07:14:21.066Z,43.77
2022-10-07T07:16:52.020Z,44.67
2022-10-07T07:19:26.728Z,44.63
2022-10-07T07:21:57.596Z,44.33
2022-10-07T07:41:05.708Z,46.39
2022-10-07T07:43:36.333Z,46.01
2022-10-07T07:46:06.961Z,46.01
2022-10-07T07:48:37.262Z,45.16
2022-10-07T07:51:07.802Z,43.14
2022-10-07T07:53:49.256Z,43.14
2022-10-07T07:56:20.560Z,41.01
2022-10-07T07:58:51.557Z,39.68
2022-10-07T08:01:23.444Z,39.92
2022-10-07T08:03:54.525Z,39.83
2022-10-07T08:06:25.417Z,39.83
2022-10-07T08:08:57.049Z,36.92
2022-10-07T08:11:28.959Z,35.02
2022-10-07T08:14:00.715Z,35.02
2022-10-07T08:16:31.778Z,37.11
2022-10-07T08:19:02.860Z,36.81
2022-10-07T08:21:34.484Z,37.48
2022-10-07T08:24:06.863Z,37.48
2022-10-07T08:26:37.622Z,37.55
2022-10-07T08:29:08.620Z,36.95
2022-10-07T08:31:40.412Z,36.19
2022-10-07T08:34:12.252Z,36.49
2022-10-07T08:36:42.992Z,35.88
2022-10-07T08:39:14.965Z,33.84
2022-10-07T08:41:57.011Z,35.26
2022-10-07T08:44:30.327Z,35.26
2022-10-07T08:47:29.472Z,36.60
2022-10-07T08:50:19.436Z,37.06
2022-10-07T08:52:59.360Z,37.28
2022-10-07T08:55:46.647Z,36.90
2022-10-07T08:58:38.689Z,36.54
2022-10-07T09:01:36.587Z,36.54
2022-10-07T09:04:49.446Z,37.73
2022-10-07T09:07:39.123Z,34.34
2022-10-07T09:10:30.064Z,34.34
2022-10-07T09:13:18.112Z,35.69
2022-10-07T09:15:54.848Z,35.69
2022-10-07T09:18:42.868Z,35.83
2022-10-07T09:21:18.998Z,38.46
2022-10-07T09:23:56.197Z,37.39
2022-10-07T09:26:27.113Z,36.96
2022-10-07T09:29:00.372Z,36.96
2022-10-07T09:31:30.854Z,38.40
2022-10-07T09:34:02.397Z,38.40
2022-10-07T09:36:33.108Z,38.53
2022-10-07T09:39:06.575Z,36.12
2022-10-07T09:41:40.239Z,36.37
2022-10-07T09:44:21.968Z,37.87
2022-10-07T09:46:59.545Z,37.87
2022-10-07T09:49:36.172Z,39.75
2022-10-07T09:52:12.941Z,40.72
2022-10-07T09:55:04.780Z,40.72
2022-10-07T09:57:58.785Z,41.97
2022-10-07T10:00:28.461Z,42.27
2022-10-07T10:03:08.184Z,42.27
2022-10-07T10:05:59.946Z,43.49
2022-10-07T10:08:54.609Z,44.27
2022-10-07T10:40:47.362Z,44.05
2022-10-07T10:43:26.862Z,44.76
2022-10-07T10:46:12.310Z,47.45
2022-10-07T10:48:55.425Z,45.80
2022-10-07T10:51:43.675Z,46.21
2022-10-07T10:54:23.841Z,45.38
2022-10-07T10:57:12.289Z,45.38
2022-10-07T10:59:53.714Z,44.24
2022-10-07T11:02:42.499Z,40.82
2022-10-07T11:05:29.142Z,40.82
2022-10-07T11:08:02.484Z,42.53
2022-10-07T11:10:50.324Z,42.04
2022-10-07T11:30:04.815Z,43.64
2022-10-07T11:32:56.089Z,43.64
2022-10-07T11:35:47.425Z,41.64
2022-10-07T11:38:38.830Z,41.90
2022-10-07T11:41:15.374Z,41.21
2022-10-07T11:43:52.014Z,38.11
2022-10-07T11:46:33.869Z,38.11
2022-10-07T11:49:07.240Z,42.45
2022-10-07T11:54:19.277Z,43.67
2022-10-07T11:57:02.742Z,40.48
2022-10-07T11:59:48.910Z,40.48
2022-10-07T12:02:36.250Z,40.86
2022-10-07T12:05:37.950Z,37.57
2022-10-07T12:08:31.507Z,36.35
2022-10-07T12:11:17.129Z,34.54
2022-10-07T12:13:50.857Z,37.15
2022-10-07T12:16:29.885Z,37.15
2022-10-07T12:19:09.949Z,40.60
2022-10-07T12:22:01.514Z,38.75
2022-10-07T12:24:37.249Z,37.65
2022-10-07T12:27:26.003Z,35.23
2022-10-07T12:30:03.849Z,33.44
2022-10-07T12:32:43.422Z,30.99
2022-10-07T12:35:35.324Z,30.99
2022-10-07T12:38:25.026Z,30.87
2022-10-07T12:41:18.362Z,31.47
2022-10-07T12:44:21.071Z,31.47
2022-10-07T12:46:58.318Z,32.40
2022-10-07T12:49:54.166Z,33.51
2022-10-07T12:52:28.018Z,35.72
2022-10-07T12:55:01.702Z,36.78
2022-10-07T12:57:49.295Z,40.60
2022-10-07T13:00:40.581Z,40.60
2022-10-07T13:03:22.864Z,39.52
2022-10-07T13:06:17.671Z,40.03
2022-10-07T13:09:13.538Z,35.94
2022-10-07T13:11:53.464Z,35.94
2022-10-07T13:14:50.907Z,34.03
2022-10-07T13:17:45.737Z,34.03
2022-10-07T13:20:25.014Z,37.78
2022-10-07T13:23:00.979Z,37.50
2022-10-07T13:25:33.293Z,37.50
2022-10-07T13:34:09.841Z,41.67
2022-10-07T13:36:48.918Z,45.39
2022-10-07T13:39:26.865Z,42.22
2022-10-07T13:42:04.010Z,42.27
2022-10-07T13:44:44.754Z,41.57
2022-10-07T13:47:33.613Z,41.88
2022-10-07T13:50:02.500Z,41.88
2022-10-07T13:52:43.115Z,40.55
2022-10-07T13:55:31.390Z,40.55
2022-10-07T13:58:06.517Z,42.66
2022-10-07T14:00:42.706Z,42.66
2022-10-07T14:03:15.992Z,43.94
2022-10-07T14:05:54.839Z,44.43
2022-10-07T14:08:26.341Z,44.43
2022-10-07T14:10:59.833Z,43.91
2022-10-07T14:13:37.476Z,43.86
2022-10-07T14:16:22.738Z,43.84
2022-10-07T14:21:27.415Z,44.40
2022-10-07T14:24:03.522Z,43.20
2022-10-07T14:27:03.114Z,44.73
2022-10-07T14:29:39.973Z,44.73
2022-10-07T14:32:16.656Z,46.10
2022-10-07T14:34:48.708Z,45.25
2022-10-07T14:37:22.062Z,45.33
2022-10-07T14:39:53.613Z,45.35
2022-10-07T14:42:27.097Z,44.69
2022-10-07T14:45:11.417Z,44.64
2022-10-07T14:47:42.008Z,45.37
2022-10-07T14:50:14.490Z,45.37
2022-10-07T14:52:53.122Z,45.75
2022-10-07T14:55:26.450Z,46.20
2022-10-07T14:57:56.779Z,45.49
2022-10-07T15:00:29.110Z,45.49
2022-10-07T15:03:10.655Z,45.54
2022-10-07T15:05:41.009Z,45.73
2022-10-07T15:08:14.195Z,45.46
2022-10-07T15:10:44.522Z,45.45
2022-10-07T15:13:16.646Z,45.97
2022-10-07T15:16:01.755Z,46.24
2022-10-07T15:18:34.645Z,45.58
2022-10-07T15:21:11.085Z,45.58
2022-10-07T15:23:40.776Z,46.40
2022-10-07T15:26:28.430Z,47.44
2022-10-07T15:29:10.540Z,47.08
2022-10-07T15:32:05.922Z,46.22
2022-10-07T15:34:21.259Z,45.69
2022-10-07T15:39:52.803Z,46.23
2022-10-07T15:42:32.271Z,46.38
2022-10-07T15:45:14.292Z,46.38
2022-10-07T15:48:17.298Z,48.87
2022-10-07T15:50:43.141Z,48.87
2022-10-07T15:53:34.022Z,49.20
2022-10-07T15:58:54.165Z,49.87
2022-10-07T16:01:32.358Z,49.29
2022-10-07T16:04:16.997Z,51.33
2022-10-07T16:06:48.995Z,49.89
2022-10-07T16:09:21.943Z,51.59
2022-10-07T16:11:54.011Z,51.66
2022-10-07T16:14:24.591Z,50.06
2022-10-07T16:17:00.033Z,50.78
2022-10-07T16:19:32.637Z,48.73
2022-10-07T16:22:03.090Z,48.73
2022-10-07T16:24:35.531Z,51.35
2022-10-07T16:27:06.038Z,51.35
2022-10-07T16:29:40.568Z,48.94
2022-10-07T16:32:19.781Z,48.94
2022-10-07T16:34:55.962Z,49.89
2022-10-07T16:37:27.005Z,49.70
2022-10-07T16:39:57.364Z,48.21
2022-10-07T16:42:27.867Z,49.92
2022-10-07T16:45:10.221Z,47.73
2022-10-07T16:47:49.467Z,48.04
2022-10-07T16:50:19.665Z,48.04
2022-10-07T16:52:50.251Z,47.58
2022-10-07T16:55:22.106Z,47.58
2022-10-07T16:57:52.826Z,48.18
2022-10-07T17:00:23.437Z,47.90
2022-10-07T17:02:54.372Z,48.35
2022-10-07T17:05:26.015Z,47.78
2022-10-07T17:07:56.306Z,47.78
2022-10-07T17:10:28.476Z,48.11
2022-10-07T17:13:03.693Z,48.79
2022-10-07T17:15:34.421Z,48.79
2022-10-07T17:18:05.558Z,49.31
2022-10-07T17:20:36.091Z,48.70
2022-10-07T17:23:08.765Z,48.70
2022-10-07T17:25:40.795Z,50.38
2022-10-07T17:28:11.621Z,50.38
2022-10-07T17:30:42.663Z,50.31
2022-10-07T17:36:08.102Z,51.34
2022-10-07T17:38:41.448Z,51.34
2022-10-07T17:41:24.175Z,50.06
2022-10-07T17:43:56.887Z,50.06
2022-10-07T17:46:32.715Z,50.79
2022-10-07T17:49:04.077Z,50.32
2022-10-07T17:51:38.261Z,50.80
2022-10-07T17:54:12.105Z,50.80
2022-10-07T17:56:46.696Z,50.68
2022-10-07T17:59:20.511Z,50.68
2022-10-07T18:01:53.230Z,50.68
2022-10-07T18:04:30.803Z,51.98
2022-10-07T18:07:08.481Z,51.98
2022-10-07T18:09:50.904Z,52.60
2022-10-07T18:12:38.866Z,51.52
2022-10-07T18:15:34.532Z,51.22
2022-10-07T18:18:21.523Z,51.22
2022-10-07T18:20:55.486Z,52.58
2022-10-07T18:23:27.675Z,52.58
2022-10-07T18:26:02.630Z,54.17
2022-10-07T18:28:34.198Z,54.17
2022-10-07T18:31:11.640Z,53.74
2022-10-07T18:33:40.133Z,53.54
2022-10-07T18:36:16.490Z,53.54
2022-10-07T18:38:49.794Z,53.44
2022-10-07T18:41:22.170Z,54.05
2022-10-07T18:43:55.280Z,54.11
2022-10-07T18:46:31.826Z,54.18
2022-10-07T18:58:31.051Z,54.88
2022-10-07T19:01:25.012Z,55.45
2022-10-07T19:04:02.716Z,55.45
2022-10-07T19:06:36.657Z,56.50
2022-10-07T19:09:09.297Z,56.94
2022-10-07T19:11:39.675Z,57.40
2022-10-07T19:14:11.323Z,58.40
2022-10-07T19:16:45.496Z,57.39
2022-10-07T19:19:25.917Z,58.63
2022-10-07T19:22:07.046Z,58.63
2022-10-07T19:30:12.703Z,59.81
2022-10-07T19:31:36.791Z,60.11
2022-10-07T19:34:12.626Z,59.10
2022-10-07T19:36:45.099Z,60.17
2022-10-07T19:39:18.133Z,60.57
2022-10-07T19:41:50.099Z,61.13
2022-10-07T19:44:20.445Z,61.13
2022-10-07T19:46:52.967Z,60.71
2022-10-07T19:49:28.626Z,60.42
2022-10-07T19:51:59.460Z,60.42
2022-10-07T19:54:29.948Z,60.34
2022-10-07T19:57:07.644Z,59.88
2022-10-07T19:59:38.549Z,60.19
2022-10-07T20:02:11.550Z,61.13
2022-10-07T20:04:42.348Z,61.13
2022-10-07T20:07:14.492Z,59.33
2022-10-07T20:09:44.755Z,58.47
2022-10-07T20:12:15.262Z,58.61
2022-10-07T20:14:46.476Z,58.61
2022-10-07T20:17:17.425Z,57.99
2022-10-07T20:19:47.659Z,58.08
2022-10-07T20:22:17.967Z,58.99
2022-10-07T20:24:48.356Z,59.47
2022-10-07T20:27:19.138Z,58.74
2022-10-07T20:29:54.095Z,59.06
2022-10-07T20:32:30.186Z,59.28
2022-10-07T20:35:04.409Z,59.28
2022-10-07T20:37:35.191Z,59.06
2022-10-07T20:40:06.570Z,59.28
2022-10-07T20:42:37.028Z,59.05
2022-10-07T20:45:08.792Z,58.82
2022-10-07T20:47:40.593Z,59.08
2022-10-07T20:50:12.158Z,59.08
2022-10-07T20:52:43.911Z,59.62
2022-10-07T20:55:15.890Z,59.62
2022-10-07T20:57:46.431Z,59.92
2022-10-07T21:00:17.311Z,59.95
2022-10-07T21:02:49.045Z,59.64
2022-10-07T21:05:19.545Z,59.88
2022-10-07T21:07:54.506Z,58.89
2022-10-07T21:10:30.489Z,58.54
2022-10-07T21:13:01.463Z,58.82
2022-10-07T21:15:31.779Z,58.82
2022-10-07T21:18:02.686Z,59.56
2022-10-07T21:20:35.168Z,59.32
2022-10-07T21:23:05.555Z,59.92
2022-10-07T21:25:36.387Z,59.86
2022-10-07T21:28:06.764Z,59.86
2022-10-07T21:30:38.027Z,59.53
2022-10-07T21:33:08.347Z,59.32
2022-10-07T21:35:41.082Z,60.16
2022-10-07T21:38:11.406Z,60.01
2022-10-07T21:40:41.763Z,60.13
2022-10-07T21:43:12.141Z,60.43
2022-10-07T21:45:42.464Z,59.96
2022-10-07T21:48:13.501Z,60.67
2022-10-07T21:50:45.326Z,61.18
2022-10-07T21:53:15.620Z,61.76
2022-10-07T21:55:46.881Z,62.25
2022-10-07T21:58:19.984Z,62.37
2022-10-07T22:01:11.247Z,62.02
2022-10-07T22:03:42.462Z,61.89
2022-10-07T22:06:15.713Z,61.48
2022-10-07T22:08:47.915Z,61.70
2022-10-07T22:11:20.332Z,61.94
2022-10-07T22:13:53.556Z,61.51
2022-10-07T22:16:24.035Z,61.25
2022-10-07T22:18:56.172Z,62.29
2022-10-07T22:21:31.379Z,62.29
2022-10-07T22:24:04.414Z,62.01
2022-10-07T22:26:40.441Z,62.95
2022-10-07T22:29:13.141Z,62.40
2022-10-07T22:31:47.717Z,61.79
2022-10-07T22:34:18.959Z,61.75
2022-10-07T22:36:49.341Z,61.75
2022-10-07T22:39:21.097Z,62.17
2022-10-07T22:41:51.361Z,62.64
2022-10-07T22:44:21.675Z,62.64
2022-10-07T22:46:52.174Z,61.94
2022-10-07T22:49:28.609Z,61.77
2022-10-07T22:51:57.296Z,61.83
2022-10-07T22:54:27.887Z,62.32
2022-10-07T22:56:58.880Z,62.57
2022-10-07T22:59:29.167Z,62.28
2022-10-07T23:01:59.316Z,62.28
2022-10-07T23:04:29.536Z,63.16
2022-10-07T23:07:02.002Z,62.79
2022-10-07T23:09:33.378Z,62.79
2022-10-07T23:12:03.673Z,62.65
2022-10-07T23:14:34.050Z,62.30
2022-10-07T23:17:04.966Z,62.16
2022-10-07T23:19:35.390Z,62.59
2022-10-07T23:22:06.231Z,62.66
2022-10-07T23:24:37.888Z,62.35
2022-10-07T23:27:08.074Z,61.24
2022-10-07T23:29:38.361Z,61.32
2022-10-07T23:32:08.473Z,62.53
2022-10-07T23:34:38.851Z,61.92
2022-10-07T23:37:09.836Z,62.48
2022-10-07T23:39:40.089Z,61.99
2022-10-07T23:42:10.240Z,61.71
2022-10-07T23:44:40.338Z,62.52
2022-10-07T23:47:10.695Z,62.30
2022-10-07T23:49:41.564Z,62.35
2022-10-07T23:52:11.789Z,62.98
2022-10-07T23:54:42.081Z,63.02
2022-10-07T23:57:12.574Z,63.09
2022-10-07T23:59:43.997Z,63.98
